Maple Ridge, Minnesota
Current Conditions -  °F | °C
As of 9:14 AM on Saturday 20 Dec 2014 (Local Time) from KBJI Reporting Station
Haze Haze  
Wind Chill: 22°   Ceiling: NA
Heat Index: 29°   Visibility: 2mi
Dew Point: 28°   Wind: 7mph
Humidity: 96%   Direction: 190°S
Pressure: 30.02"   Gusts: NA
Location:  47.7369°N, 94.9947°W
Report Text: KBJI 201514Z AUTO 19006KT 2SM BR M02/M02 A3002 RMK AO2 T10171022
Loading
Personal Weather Stations






























Interactive Weather Map New forecast layout! Learn more

10-Day Weather Forecast

Advertisements
Track Severe Weather on mobile